createdAt,value
2018-02-11T00:00:39.101Z,46.94
2018-02-11T00:01:41.571Z,46.95
2018-02-11T00:02:44.085Z,46.96
2018-02-11T00:03:46.580Z,46.97
2018-02-11T00:04:49.080Z,46.98
2018-02-11T00:05:51.552Z,46.98
2018-02-11T00:06:54.033Z,46.98
2018-02-11T00:07:56.502Z,46.99
2018-02-11T00:08:59.012Z,46.99
2018-02-11T00:10:01.497Z,46.99
2018-02-11T00:11:03.974Z,47.00
2018-02-11T00:12:06.458Z,47.01
2018-02-11T00:13:08.936Z,47.01
2018-02-11T00:14:11.449Z,47.01
2018-02-11T00:15:13.933Z,47.02
2018-02-11T00:16:16.399Z,47.03
2018-02-11T00:17:18.885Z,47.04
2018-02-11T00:18:21.365Z,47.03
2018-02-11T00:19:23.876Z,47.03
2018-02-11T00:20:26.340Z,47.04
2018-02-11T00:21:28.832Z,47.05
2018-02-11T00:22:31.351Z,47.06
2018-02-11T00:23:33.833Z,47.06
2018-02-11T00:24:36.344Z,47.07
2018-02-11T00:25:38.832Z,47.08
2018-02-11T00:26:41.301Z,47.05
2018-02-11T00:27:43.789Z,47.08
2018-02-11T00:28:46.285Z,47.10
2018-02-11T00:29:48.781Z,47.10
2018-02-11T00:30:51.246Z,47.11
2018-02-11T00:31:53.714Z,47.12
2018-02-11T00:32:56.174Z,47.13
2018-02-11T00:33:58.692Z,47.13
2018-02-11T00:35:01.201Z,47.13
2018-02-11T00:36:03.670Z,47.11
2018-02-11T00:37:06.148Z,47.12
2018-02-11T00:38:09.586Z,47.13
2018-02-11T00:39:12.049Z,47.15
2018-02-11T00:40:14.532Z,47.13
2018-02-11T00:41:17.021Z,47.13
2018-02-11T00:42:19.490Z,47.14
2018-02-11T00:43:21.981Z,47.15
2018-02-11T00:44:24.443Z,47.15
2018-02-11T00:45:26.925Z,47.16
2018-02-11T00:46:29.404Z,47.16
2018-02-11T00:47:31.888Z,47.17
2018-02-11T00:48:34.358Z,47.17
2018-02-11T00:49:36.837Z,47.18
2018-02-11T00:50:39.307Z,47.18
2018-02-11T00:51:41.797Z,47.19
2018-02-11T00:52:44.270Z,47.19
2018-02-11T00:53:46.753Z,47.19
2018-02-11T00:54:49.241Z,47.20
2018-02-11T00:55:51.706Z,47.21
2018-02-11T00:56:54.184Z,47.18
2018-02-11T00:57:56.651Z,47.18
2018-02-11T00:58:59.133Z,47.19
2018-02-11T01:00:01.618Z,47.20
2018-02-11T01:01:04.128Z,47.20
2018-02-11T01:02:06.620Z,47.21
2018-02-11T01:03:09.091Z,47.21
2018-02-11T01:04:11.580Z,47.22
2018-02-11T01:05:14.057Z,47.21
2018-02-11T01:06:16.536Z,47.21
2018-02-11T01:07:19.018Z,47.21
2018-02-11T01:08:21.536Z,47.22
2018-02-11T01:09:24.024Z,47.27
2018-02-11T01:10:26.500Z,47.24
2018-02-11T01:11:28.981Z,47.22
2018-02-11T01:12:31.449Z,47.22
2018-02-11T01:13:33.914Z,47.23
2018-02-11T01:14:36.378Z,47.23
2018-02-11T01:15:38.852Z,47.24
2018-02-11T01:16:41.388Z,47.24
2018-02-11T01:17:43.855Z,47.24
2018-02-11T01:18:46.332Z,47.24
2018-02-11T01:19:48.795Z,47.25
2018-02-11T01:20:51.275Z,47.26
2018-02-11T01:21:53.764Z,47.26
2018-02-11T01:22:56.237Z,47.26
2018-02-11T01:23:58.733Z,47.26
2018-02-11T01:25:01.199Z,47.25
2018-02-11T01:26:03.676Z,47.25
2018-02-11T01:27:06.147Z,47.27
2018-02-11T01:28:08.667Z,47.27
2018-02-11T01:29:11.136Z,47.27
2018-02-11T01:30:13.632Z,47.28
2018-02-11T01:31:16.094Z,47.29
2018-02-11T01:32:18.573Z,47.28
2018-02-11T01:33:21.061Z,47.29
2018-02-11T01:34:23.527Z,47.29
2018-02-11T01:35:26.009Z,47.27
2018-02-11T01:36:29.233Z,47.28
2018-02-11T01:37:31.722Z,47.28
2018-02-11T01:38:34.200Z,47.28
2018-02-11T01:39:36.682Z,47.28
2018-02-11T01:40:39.174Z,47.28
2018-02-11T01:41:41.653Z,47.28
2018-02-11T01:42:44.128Z,47.29
2018-02-11T01:43:46.652Z,47.29
2018-02-11T01:44:49.127Z,47.30
2018-02-11T01:45:51.601Z,47.31
2018-02-11T01:46:54.062Z,47.31
2018-02-11T01:47:56.523Z,47.30
2018-02-11T01:48:58.986Z,47.31
2018-02-11T01:50:13.312Z,47.30
2018-02-11T01:51:15.783Z,47.30
2018-02-11T01:52:18.273Z,47.28
2018-02-11T01:53:20.738Z,47.29
2018-02-11T01:54:23.202Z,47.32
2018-02-11T01:55:25.681Z,47.29
2018-02-11T01:56:28.142Z,47.31
2018-02-11T01:57:30.645Z,47.30
2018-02-11T01:58:33.133Z,47.30
2018-02-11T01:59:35.602Z,47.30
2018-02-11T02:00:38.079Z,47.31
2018-02-11T02:01:40.559Z,47.30
2018-02-11T02:02:43.065Z,47.30
2018-02-11T02:03:45.541Z,47.31
2018-02-11T02:04:48.028Z,47.31
2018-02-11T02:05:50.497Z,47.34
2018-02-11T02:06:52.975Z,47.34
2018-02-11T02:07:55.462Z,47.34
2018-02-11T02:08:57.923Z,47.33
2018-02-11T02:10:00.401Z,47.33
2018-02-11T02:11:02.871Z,47.31
2018-02-11T02:12:05.338Z,47.32
2018-02-11T02:13:07.827Z,47.35
2018-02-11T02:14:10.291Z,47.75
2018-02-11T02:15:12.758Z,48.50
2018-02-11T02:16:15.226Z,48.75
2018-02-11T02:17:17.771Z,48.92
2018-02-11T02:18:20.277Z,48.79
2018-02-11T02:19:22.756Z,48.58
2018-02-11T02:20:25.219Z,48.56
2018-02-11T02:21:27.701Z,48.58
2018-02-11T02:22:30.166Z,48.63
2018-02-11T02:23:32.654Z,48.62
2018-02-11T02:24:35.145Z,48.50
2018-02-11T02:25:37.629Z,48.25
2018-02-11T02:26:40.116Z,48.10
2018-02-11T02:27:42.583Z,47.89
2018-02-11T02:28:45.088Z,48.03
2018-02-11T02:29:47.573Z,48.22
2018-02-11T02:30:50.058Z,48.42
2018-02-11T02:31:52.540Z,48.38
2018-02-11T02:32:55.010Z,48.31
2018-02-11T02:33:57.547Z,48.27
2018-02-11T02:35:00.014Z,48.30
2018-02-11T02:36:02.513Z,48.32
2018-02-11T02:37:04.996Z,48.32
2018-02-11T02:38:07.473Z,48.38
2018-02-11T02:39:09.976Z,48.47
2018-02-11T02:40:12.451Z,48.49
2018-02-11T02:41:14.927Z,48.52
2018-02-11T02:42:17.390Z,48.59
2018-02-11T02:43:19.881Z,48.79
2018-02-11T02:44:22.385Z,48.93
2018-02-11T02:45:24.877Z,49.08
2018-02-11T02:46:27.350Z,49.21
2018-02-11T02:47:29.834Z,49.38
2018-02-11T02:48:32.323Z,49.46
2018-02-11T02:49:34.814Z,49.50
2018-02-11T02:50:37.286Z,49.60
2018-02-11T02:51:39.755Z,49.64
2018-02-11T02:52:42.242Z,49.69
2018-02-11T02:53:44.724Z,49.74
2018-02-11T02:54:47.210Z,49.68
2018-02-11T02:55:49.699Z,49.72
2018-02-11T02:56:52.187Z,49.86
2018-02-11T02:57:54.651Z,50.02
2018-02-11T02:58:57.128Z,50.09
2018-02-11T02:59:59.648Z,50.08
2018-02-11T03:01:02.148Z,50.10
2018-02-11T03:02:04.619Z,50.18
2018-02-11T03:03:07.105Z,50.21
2018-02-11T03:04:09.582Z,50.20
2018-02-11T03:05:12.063Z,50.19
2018-02-11T03:06:14.530Z,50.30
2018-02-11T03:07:17.008Z,50.39
2018-02-11T03:08:19.489Z,50.38
2018-02-11T03:09:21.969Z,50.52
2018-02-11T03:10:24.468Z,50.58
2018-02-11T03:11:26.944Z,50.58
2018-02-11T03:12:29.403Z,50.62
2018-02-11T03:13:31.871Z,50.73
2018-02-11T03:14:34.340Z,50.66
2018-02-11T03:15:36.837Z,50.75
2018-02-11T03:16:39.344Z,50.83
2018-02-11T03:17:41.802Z,50.90
2018-02-11T03:18:44.278Z,50.83
2018-02-11T03:19:46.767Z,50.89
2018-02-11T03:20:49.263Z,50.98
2018-02-11T03:21:51.787Z,51.06
2018-02-11T03:22:54.258Z,51.14
2018-02-11T03:23:56.734Z,51.08
2018-02-11T03:24:59.212Z,51.01
2018-02-11T03:26:01.707Z,51.11
2018-02-11T03:27:04.185Z,51.13
2018-02-11T03:28:06.670Z,51.13
2018-02-11T03:29:09.135Z,51.23
2018-02-11T03:30:11.603Z,51.27
2018-02-11T03:31:14.124Z,51.31
2018-02-11T03:32:16.587Z,51.46
2018-02-11T03:33:19.071Z,51.36
2018-02-11T03:34:21.545Z,51.15
2018-02-11T03:35:24.029Z,51.20
2018-02-11T03:36:26.517Z,51.30
2018-02-11T03:37:29.000Z,51.35
2018-02-11T03:38:31.463Z,51.37
2018-02-11T03:39:33.943Z,51.51
2018-02-11T03:40:36.416Z,51.58
2018-02-11T03:41:38.902Z,51.65
2018-02-11T03:42:41.380Z,51.65
2018-02-11T03:43:43.847Z,51.74
2018-02-11T03:44:46.314Z,51.69
2018-02-11T03:45:48.779Z,51.66
2018-02-11T03:46:51.285Z,51.75
2018-02-11T03:47:53.765Z,51.77
2018-02-11T03:48:56.238Z,51.87
2018-02-11T03:49:58.702Z,52.09
2018-02-11T03:51:01.186Z,52.23
2018-02-11T03:52:03.692Z,52.32
2018-02-11T03:53:06.171Z,52.22
2018-02-11T03:54:08.649Z,52.22
2018-02-11T03:55:11.110Z,52.33
2018-02-11T03:56:13.571Z,52.33
2018-02-11T03:57:16.096Z,52.50
2018-02-11T03:58:18.566Z,52.48
2018-02-11T03:59:21.027Z,52.33
2018-02-11T04:00:23.501Z,52.24
2018-02-11T04:01:25.967Z,52.14
2018-02-11T04:02:28.455Z,52.04
2018-02-11T04:03:30.940Z,52.08
2018-02-11T04:04:33.406Z,52.20
2018-02-11T04:05:35.880Z,52.25
2018-02-11T04:06:38.356Z,52.19
2018-02-11T04:07:40.838Z,52.24
2018-02-11T04:08:43.323Z,52.32
2018-02-11T04:09:45.803Z,52.29
2018-02-11T04:10:48.262Z,52.26
2018-02-11T04:11:50.740Z,52.34
2018-02-11T04:12:53.243Z,52.38
2018-02-11T04:13:55.741Z,52.49
2018-02-11T04:14:58.209Z,52.48
2018-02-11T04:16:00.672Z,52.53
2018-02-11T04:17:03.156Z,52.57
2018-02-11T04:18:05.642Z,52.53
2018-02-11T04:19:08.121Z,52.51
2018-02-11T04:20:10.597Z,52.70
2018-02-11T04:21:13.058Z,52.63
2018-02-11T04:22:15.526Z,52.63
2018-02-11T04:23:18.021Z,52.63
2018-02-11T04:24:20.487Z,52.71
2018-02-11T04:25:22.954Z,52.83
2018-02-11T04:26:25.410Z,52.77
2018-02-11T04:27:27.889Z,52.74
2018-02-11T04:28:30.389Z,52.78
2018-02-11T04:29:32.873Z,52.84
2018-02-11T04:30:35.338Z,52.89
2018-02-11T04:31:37.813Z,52.74
2018-02-11T04:32:40.278Z,53.02
2018-02-11T04:33:42.788Z,53.63
2018-02-11T04:34:45.264Z,53.60
2018-02-11T04:35:47.727Z,53.54
2018-02-11T04:36:50.187Z,53.47
2018-02-11T04:37:52.671Z,53.22
2018-02-11T04:38:55.168Z,53.17
2018-02-11T04:39:57.626Z,53.33
2018-02-11T04:41:00.095Z,53.25
2018-02-11T04:42:02.568Z,53.21
2018-02-11T04:43:05.049Z,53.20
2018-02-11T04:44:07.557Z,53.21
2018-02-11T04:45:10.040Z,53.33
2018-02-11T04:46:12.516Z,53.34
2018-02-11T04:47:14.979Z,53.48
2018-02-11T04:48:17.450Z,53.68
2018-02-11T04:49:19.948Z,53.81
2018-02-11T04:50:22.430Z,53.97
2018-02-11T04:51:24.936Z,54.03
2018-02-11T04:52:27.417Z,53.90
2018-02-11T04:53:29.878Z,53.89
2018-02-11T04:54:32.363Z,53.97
2018-02-11T04:55:34.831Z,53.98
2018-02-11T04:56:37.321Z,54.06
2018-02-11T04:57:39.800Z,53.92
2018-02-11T04:58:42.275Z,53.75
2018-02-11T04:59:44.768Z,53.54
2018-02-11T05:00:47.236Z,53.88
2018-02-11T05:01:49.713Z,54.07
2018-02-11T05:02:52.178Z,54.51
2018-02-11T05:03:54.648Z,54.50
2018-02-11T05:04:57.159Z,54.17
2018-02-11T05:05:59.637Z,54.29
2018-02-11T05:07:02.113Z,54.40
2018-02-11T05:08:04.594Z,54.55
2018-02-11T05:09:07.073Z,54.59
2018-02-11T05:10:09.565Z,54.63
2018-02-11T05:11:12.056Z,54.78
2018-02-11T05:12:14.535Z,54.93
2018-02-11T05:13:16.994Z,54.99
2018-02-11T05:14:19.454Z,54.89
2018-02-11T05:15:21.938Z,54.86
2018-02-11T05:16:24.408Z,54.83
2018-02-11T05:17:26.873Z,54.56
2018-02-11T05:18:29.340Z,54.29
2018-02-11T05:19:31.816Z,54.14
2018-02-11T05:20:34.307Z,54.26
2018-02-11T05:21:36.782Z,54.35
2018-02-11T05:22:39.260Z,54.58
2018-02-11T05:23:41.742Z,54.63
2018-02-11T05:24:44.201Z,54.52
2018-02-11T05:25:46.701Z,54.56
2018-02-11T05:26:49.181Z,54.58
2018-02-11T05:27:51.642Z,54.67
2018-02-11T05:28:54.098Z,54.45
2018-02-11T05:29:56.563Z,54.17
2018-02-11T05:30:59.056Z,54.24
2018-02-11T05:32:01.536Z,54.14
2018-02-11T05:33:04.002Z,54.22
2018-02-11T05:34:06.475Z,54.14
2018-02-11T05:35:08.938Z,54.09
2018-02-11T05:36:11.440Z,54.00
2018-02-11T05:37:13.902Z,54.11
2018-02-11T05:38:16.366Z,54.36
2018-02-11T05:39:18.834Z,54.32
2018-02-11T05:40:21.313Z,54.32
2018-02-11T05:41:23.813Z,54.40
2018-02-11T05:42:26.271Z,54.31
2018-02-11T05:43:28.744Z,54.28
2018-02-11T05:44:31.225Z,54.36
2018-02-11T05:45:33.682Z,54.34
2018-02-11T05:46:36.166Z,54.33
2018-02-11T05:47:38.628Z,54.56
2018-02-11T05:48:41.117Z,54.46
2018-02-11T05:49:43.620Z,54.34
2018-02-11T05:50:46.089Z,54.50
2018-02-11T05:51:48.570Z,54.72
2018-02-11T05:52:51.035Z,54.84
2018-02-11T05:53:53.507Z,54.78
2018-02-11T05:54:55.971Z,54.91
2018-02-11T05:55:58.445Z,55.07
2018-02-11T05:57:00.931Z,55.03
2018-02-11T05:58:03.394Z,55.14
2018-02-11T05:59:05.854Z,55.14
2018-02-11T06:00:08.336Z,55.15
2018-02-11T06:01:10.818Z,55.27
2018-02-11T06:02:13.324Z,55.31
2018-02-11T06:03:15.790Z,55.41
2018-02-11T06:04:18.308Z,55.20
2018-02-11T06:05:20.822Z,55.25
2018-02-11T06:06:23.302Z,55.56
2018-02-11T06:07:25.786Z,55.81
2018-02-11T06:08:28.265Z,55.69
2018-02-11T06:09:30.731Z,55.93
2018-02-11T06:10:33.207Z,55.95
2018-02-11T06:11:35.678Z,55.92
2018-02-11T06:12:38.180Z,55.83
2018-02-11T06:13:40.645Z,55.59
2018-02-11T06:14:43.126Z,55.67
2018-02-11T06:15:45.591Z,55.75
2018-02-11T06:16:48.077Z,55.62
2018-02-11T06:17:50.576Z,55.65
2018-02-11T06:18:53.060Z,55.84
2018-02-11T06:19:55.518Z,55.71
2018-02-11T06:20:57.987Z,55.66
2018-02-11T06:22:00.454Z,55.67
2018-02-11T06:23:02.956Z,55.70
2018-02-11T06:24:05.433Z,55.55
2018-02-11T06:25:07.916Z,55.65
2018-02-11T06:26:10.404Z,55.55
2018-02-11T06:27:12.891Z,55.47
2018-02-11T06:28:15.396Z,55.40
2018-02-11T06:29:17.877Z,55.44
2018-02-11T06:30:20.357Z,55.42
2018-02-11T06:31:22.815Z,55.45
2018-02-11T06:32:25.288Z,55.36
2018-02-11T06:33:27.779Z,55.91
2018-02-11T06:34:30.247Z,55.45
2018-02-11T06:35:32.727Z,55.17
2018-02-11T06:36:35.200Z,55.30
2018-02-11T06:37:37.666Z,55.21
2018-02-11T06:38:40.158Z,55.19
2018-02-11T06:39:42.629Z,55.43
2018-02-11T06:40:45.091Z,55.29
2018-02-11T06:41:47.572Z,55.63
2018-02-11T06:42:50.035Z,56.09
2018-02-11T06:43:52.532Z,56.23
2018-02-11T06:44:55.012Z,56.21
2018-02-11T06:45:57.475Z,56.15
2018-02-11T06:46:59.939Z,56.19
2018-02-11T06:48:02.398Z,56.03
2018-02-11T06:49:04.887Z,56.04
2018-02-11T06:50:07.364Z,56.06
2018-02-11T06:51:09.844Z,56.16
2018-02-11T06:52:12.321Z,56.37
2018-02-11T06:53:14.808Z,56.10
2018-02-11T06:54:17.301Z,55.84
2018-02-11T06:55:19.781Z,55.83
2018-02-11T06:56:22.246Z,55.98
2018-02-11T06:57:24.710Z,56.13
2018-02-11T06:58:27.291Z,56.14
2018-02-11T06:59:29.779Z,56.29
2018-02-11T07:00:32.307Z,56.36
2018-02-11T07:01:34.784Z,56.33
2018-02-11T07:02:37.261Z,56.30
2018-02-11T07:03:39.736Z,56.19
2018-02-11T07:04:42.232Z,56.14
2018-02-11T07:05:44.717Z,56.10
2018-02-11T07:06:47.194Z,56.01
2018-02-11T07:07:49.682Z,55.79
2018-02-11T07:08:52.171Z,55.52
2018-02-11T07:09:54.676Z,56.11
2018-02-11T07:10:57.151Z,54.93
2018-02-11T07:11:59.619Z,54.27
2018-02-11T07:13:02.100Z,53.59
2018-02-11T07:14:04.580Z,53.13
2018-02-11T07:15:07.085Z,52.68
2018-02-11T07:16:09.642Z,51.97
2018-02-11T07:17:12.110Z,51.24
2018-02-11T07:18:14.585Z,51.10
2018-02-11T07:19:17.042Z,51.11
2018-02-11T07:20:19.522Z,50.98
2018-02-11T07:21:21.987Z,50.76
2018-02-11T07:22:24.451Z,50.20
2018-02-11T07:23:26.935Z,49.69
2018-02-11T07:24:29.399Z,49.57
2018-02-11T07:25:31.899Z,49.56
2018-02-11T07:26:34.376Z,49.33
2018-02-11T07:27:36.844Z,49.22
2018-02-11T07:28:39.325Z,49.15
2018-02-11T07:29:41.800Z,48.78
2018-02-11T07:30:44.284Z,48.67
2018-02-11T07:31:46.762Z,48.55
2018-02-11T07:32:49.236Z,48.58
2018-02-11T07:33:51.708Z,48.51
2018-02-11T07:34:54.188Z,47.85
2018-02-11T07:35:56.688Z,48.29
2018-02-11T07:36:59.160Z,50.90
2018-02-11T07:38:01.636Z,52.46
2018-02-11T07:39:04.121Z,50.61
2018-02-11T07:40:06.597Z,50.37
2018-02-11T07:41:09.083Z,49.87
2018-02-11T07:42:11.560Z,49.57
2018-02-11T07:43:14.040Z,49.76
2018-02-11T07:44:16.523Z,49.76
2018-02-11T07:45:19.181Z,50.00
2018-02-11T07:46:21.672Z,50.00
2018-02-11T07:47:24.134Z,49.40
2018-02-11T07:48:26.612Z,48.89
2018-02-11T07:49:29.071Z,48.79
2018-02-11T07:50:31.530Z,46.89
2018-02-11T07:51:34.032Z,46.93
2018-02-11T07:52:36.590Z,46.73
2018-02-11T07:53:39.065Z,46.69
2018-02-11T07:54:41.548Z,46.84
2018-02-11T07:55:44.029Z,47.08
2018-02-11T07:56:46.514Z,45.75
2018-02-11T07:57:48.982Z,45.28
2018-02-11T07:58:51.443Z,45.88
2018-02-11T07:59:53.903Z,44.74
2018-02-11T08:00:56.380Z,44.95
2018-02-11T08:01:58.876Z,45.40
2018-02-11T08:03:01.342Z,45.85
2018-02-11T08:04:03.807Z,45.50
2018-02-11T08:05:06.266Z,45.47
2018-02-11T08:06:08.776Z,45.30
2018-02-11T08:07:11.271Z,46.02
2018-02-11T08:08:13.745Z,45.92
2018-02-11T08:09:16.211Z,45.92
2018-02-11T08:10:18.674Z,45.87
2018-02-11T08:11:21.152Z,46.02
2018-02-11T08:12:23.639Z,46.20
2018-02-11T08:13:26.102Z,45.64
2018-02-11T08:14:28.562Z,45.85
2018-02-11T08:15:31.049Z,46.05
2018-02-11T08:16:33.529Z,45.94
2018-02-11T08:17:36.020Z,45.98
2018-02-11T08:18:38.487Z,46.67
2018-02-11T08:19:40.968Z,46.81
2018-02-11T08:20:43.434Z,46.86
2018-02-11T08:21:45.918Z,47.01
2018-02-11T08:22:48.408Z,46.95
2018-02-11T08:23:50.875Z,46.90
2018-02-11T08:24:53.347Z,46.75
2018-02-11T08:25:55.829Z,46.78
2018-02-11T08:26:58.305Z,46.19
2018-02-11T08:28:00.807Z,45.77
2018-02-11T08:29:03.270Z,45.34
2018-02-11T08:30:05.739Z,45.05
2018-02-11T08:31:08.207Z,44.93
2018-02-11T08:32:10.670Z,44.79
2018-02-11T08:33:13.193Z,44.43
2018-02-11T08:34:15.659Z,44.27
2018-02-11T08:35:18.118Z,44.26
2018-02-11T08:36:20.599Z,44.21
2018-02-11T08:37:23.080Z,44.16
2018-02-11T08:38:25.582Z,44.13
2018-02-11T08:39:28.069Z,44.33
2018-02-11T08:40:30.556Z,44.48
2018-02-11T08:41:33.037Z,44.43
2018-02-11T08:42:35.502Z,44.66
2018-02-11T08:43:38.005Z,44.60
2018-02-11T08:44:40.475Z,44.69
2018-02-11T08:45:42.947Z,44.91
2018-02-11T08:46:45.411Z,43.96
2018-02-11T08:47:47.903Z,43.43
2018-02-11T08:48:50.381Z,43.09
2018-02-11T08:49:52.861Z,43.09
2018-02-11T08:50:55.337Z,43.22
2018-02-11T08:51:57.806Z,43.17
2018-02-11T08:53:00.303Z,43.10
2018-02-11T08:54:02.859Z,43.20
2018-02-11T08:55:05.338Z,43.36
2018-02-11T08:56:07.813Z,43.45
2018-02-11T08:57:10.290Z,43.66
2018-02-11T08:58:12.783Z,43.70
2018-02-11T08:59:15.282Z,43.89
2018-02-11T09:00:17.764Z,44.17
2018-02-11T09:01:20.230Z,44.41
2018-02-11T09:02:22.713Z,44.45
2018-02-11T09:03:25.197Z,44.41
2018-02-11T09:04:27.691Z,44.41
2018-02-11T09:05:30.178Z,44.44
2018-02-11T09:06:32.643Z,44.70
2018-02-11T09:07:35.110Z,44.74
2018-02-11T09:08:37.574Z,44.91
2018-02-11T09:09:40.092Z,44.90
2018-02-11T09:10:42.546Z,44.86
2018-02-11T09:11:45.017Z,44.87
2018-02-11T09:12:47.527Z,44.88
2018-02-11T09:13:49.978Z,44.92
2018-02-11T09:14:52.472Z,44.98
2018-02-11T09:15:54.934Z,45.15
2018-02-11T09:16:57.390Z,45.24
2018-02-11T09:17:59.861Z,45.48
2018-02-11T09:19:02.317Z,45.52
2018-02-11T09:20:04.808Z,45.39
2018-02-11T09:21:07.285Z,45.34
2018-02-11T09:22:09.760Z,45.30
2018-02-11T09:23:12.239Z,45.17
2018-02-11T09:24:14.714Z,45.06
2018-02-11T09:25:17.215Z,44.98
2018-02-11T09:26:19.697Z,44.83
2018-02-11T09:27:22.212Z,44.83
2018-02-11T09:28:25.407Z,44.81
2018-02-11T09:29:27.867Z,45.02
2018-02-11T09:30:30.356Z,44.98
2018-02-11T09:31:32.818Z,45.27
2018-02-11T09:32:35.330Z,45.33
2018-02-11T09:33:37.799Z,45.37
2018-02-11T09:34:40.272Z,45.41
2018-02-11T09:35:42.755Z,45.63
2018-02-11T09:36:45.233Z,45.48
2018-02-11T09:37:47.705Z,45.33
2018-02-11T09:38:50.163Z,45.24
2018-02-11T09:39:52.633Z,45.23
2018-02-11T09:40:55.150Z,45.04
2018-02-11T09:41:57.618Z,44.91
2018-02-11T09:43:00.083Z,44.91
2018-02-11T09:44:02.561Z,44.82
2018-02-11T09:45:05.074Z,44.80
2018-02-11T09:46:07.584Z,44.91
2018-02-11T09:47:10.069Z,45.01
2018-02-11T09:48:12.541Z,45.03
2018-02-11T09:49:14.994Z,45.30
2018-02-11T09:50:17.459Z,45.21
2018-02-11T09:51:19.943Z,45.32
2018-02-11T09:52:22.418Z,45.43
2018-02-11T09:53:24.888Z,45.42
2018-02-11T09:54:27.357Z,45.35
2018-02-11T09:55:29.814Z,45.27
2018-02-11T09:56:32.290Z,45.16
2018-02-11T09:57:34.761Z,45.00
2018-02-11T09:58:37.255Z,44.92
2018-02-11T09:59:39.715Z,45.01
2018-02-11T10:00:42.170Z,44.92
2018-02-11T10:01:44.665Z,44.91
2018-02-11T10:02:47.138Z,45.06
2018-02-11T10:03:49.607Z,45.11
2018-02-11T10:04:52.090Z,45.59
2018-02-11T10:05:54.547Z,45.34
2018-02-11T10:06:57.048Z,45.42
2018-02-11T10:07:59.503Z,45.56
2018-02-11T10:09:01.964Z,45.91
2018-02-11T10:10:04.436Z,45.87
2018-02-11T10:11:06.890Z,45.62
2018-02-11T10:12:09.394Z,45.65
2018-02-11T10:13:11.865Z,45.45
2018-02-11T10:14:14.322Z,45.39
2018-02-11T10:15:16.781Z,45.51
2018-02-11T10:16:19.252Z,45.59
2018-02-11T10:17:21.765Z,45.40
2018-02-11T10:18:24.973Z,45.41
2018-02-11T10:19:27.431Z,45.33
2018-02-11T10:20:29.890Z,45.36
2018-02-11T10:21:32.375Z,45.42
2018-02-11T10:22:34.874Z,45.65
2018-02-11T10:23:37.344Z,45.66
2018-02-11T10:24:39.802Z,45.74
2018-02-11T10:25:42.273Z,46.12
2018-02-11T10:26:44.748Z,45.97
2018-02-11T10:27:47.257Z,45.92
2018-02-11T10:28:49.710Z,45.93
2018-02-11T10:29:52.167Z,45.86
2018-02-11T10:30:54.623Z,45.79
2018-02-11T10:31:57.079Z,45.69
2018-02-11T10:32:59.577Z,45.60
2018-02-11T10:34:02.031Z,45.48
2018-02-11T10:35:04.487Z,45.53
2018-02-11T10:36:06.957Z,45.52
2018-02-11T10:37:09.428Z,45.54
2018-02-11T10:38:11.924Z,45.61
2018-02-11T10:39:14.397Z,45.77
2018-02-11T10:40:16.882Z,46.36
2018-02-11T10:41:19.343Z,45.68
2018-02-11T10:42:21.800Z,45.72
2018-02-11T10:43:24.301Z,45.19
2018-02-11T10:44:26.759Z,44.77
2018-02-11T10:45:29.217Z,44.33
2018-02-11T10:46:31.679Z,43.86
2018-02-11T10:47:34.148Z,43.73
2018-02-11T10:48:36.645Z,43.48
2018-02-11T10:49:39.102Z,43.23
2018-02-11T10:50:41.572Z,43.25
2018-02-11T10:51:44.031Z,43.35
2018-02-11T10:52:46.506Z,43.38
2018-02-11T10:53:49.000Z,43.36
2018-02-11T10:54:51.478Z,43.46
2018-02-11T10:55:53.934Z,43.55
2018-02-11T10:56:56.391Z,43.55
2018-02-11T10:57:58.868Z,43.68
2018-02-11T10:59:01.364Z,44.03
2018-02-11T11:00:03.835Z,44.41
2018-02-11T11:01:06.295Z,44.57
2018-02-11T11:02:08.767Z,44.76
2018-02-11T11:03:11.243Z,45.00
2018-02-11T11:04:13.852Z,45.22
2018-02-11T11:05:16.353Z,45.44
2018-02-11T11:06:18.815Z,45.73
2018-02-11T11:07:21.271Z,46.26
2018-02-11T11:08:23.727Z,46.30
2018-02-11T11:09:26.206Z,46.41
2018-02-11T11:10:28.681Z,46.62
2018-02-11T11:11:31.153Z,46.70
2018-02-11T11:12:33.608Z,45.54
2018-02-11T11:13:36.067Z,45.32
2018-02-11T11:14:38.701Z,45.19
2018-02-11T11:15:41.846Z,45.82
2018-02-11T11:16:44.329Z,46.19
2018-02-11T11:17:46.794Z,46.05
2018-02-11T11:18:49.273Z,46.05
2018-02-11T11:19:51.773Z,46.90
2018-02-11T11:20:54.256Z,47.21
2018-02-11T11:21:56.739Z,47.44
2018-02-11T11:22:59.212Z,47.75
2018-02-11T11:24:01.690Z,47.90
2018-02-11T11:25:04.189Z,48.24
2018-02-11T11:26:06.666Z,48.34
2018-02-11T11:27:09.155Z,48.57
2018-02-11T11:28:11.625Z,48.77
2018-02-11T11:29:14.108Z,48.97
2018-02-11T11:30:16.611Z,49.21
2018-02-11T11:31:19.089Z,49.31
2018-02-11T11:32:21.566Z,49.44
2018-02-11T11:33:24.031Z,49.50
2018-02-11T11:34:26.507Z,49.58
2018-02-11T11:35:29.005Z,49.60
2018-02-11T11:36:31.485Z,49.87
2018-02-11T11:37:33.960Z,49.99
2018-02-11T11:38:36.419Z,50.05
2018-02-11T11:39:38.886Z,49.90
2018-02-11T11:40:41.390Z,49.89
2018-02-11T11:41:43.863Z,50.15
2018-02-11T11:42:46.336Z,50.39
2018-02-11T11:43:48.804Z,50.47
2018-02-11T11:44:51.277Z,50.66
2018-02-11T11:45:53.777Z,50.81
2018-02-11T11:46:56.293Z,50.62
2018-02-11T11:47:58.755Z,50.64
2018-02-11T11:49:01.241Z,50.69
2018-02-11T11:50:03.706Z,50.97
2018-02-11T11:51:06.193Z,50.90
2018-02-11T11:52:08.675Z,50.90
2018-02-11T11:53:11.158Z,51.01
2018-02-11T11:54:13.657Z,51.07
2018-02-11T11:55:16.144Z,51.00
2018-02-11T11:56:18.669Z,51.03
2018-02-11T11:57:21.157Z,51.15
2018-02-11T11:58:23.614Z,51.17
2018-02-11T11:59:26.166Z,51.26
2018-02-11T12:00:28.640Z,51.34
2018-02-11T12:01:31.122Z,51.50
2018-02-11T12:02:33.593Z,51.57
2018-02-11T12:03:36.055Z,51.67
2018-02-11T12:04:38.515Z,51.79
2018-02-11T12:05:40.988Z,51.82
2018-02-11T12:06:43.478Z,51.84
2018-02-11T12:07:45.943Z,51.82
2018-02-11T12:08:48.403Z,51.95
2018-02-11T12:09:50.881Z,52.02
2018-02-11T12:10:53.346Z,52.10
2018-02-11T12:11:55.840Z,52.01
2018-02-11T12:12:58.299Z,52.01
2018-02-11T12:14:00.773Z,52.03
2018-02-11T12:15:03.237Z,52.05
2018-02-11T12:16:05.771Z,52.05
2018-02-11T12:17:08.222Z,52.09
2018-02-11T12:18:10.705Z,52.25
2018-02-11T12:19:13.181Z,52.38
2018-02-11T12:20:15.661Z,52.35
2018-02-11T12:21:18.135Z,52.34
2018-02-11T12:22:20.641Z,52.42
2018-02-11T12:23:23.103Z,52.41
2018-02-11T12:24:25.604Z,52.41
2018-02-11T12:25:28.067Z,52.44
2018-02-11T12:26:30.531Z,52.54
2018-02-11T12:27:33.026Z,52.54
2018-02-11T12:28:35.557Z,52.52
2018-02-11T12:29:38.042Z,52.61
2018-02-11T12:30:40.514Z,52.62
2018-02-11T12:31:42.994Z,52.63
2018-02-11T12:32:45.478Z,52.60
2018-02-11T12:33:47.947Z,52.60
2018-02-11T12:34:50.415Z,52.59
2018-02-11T12:35:52.897Z,52.64
2018-02-11T12:36:55.422Z,52.56
2018-02-11T12:37:57.951Z,52.54
2018-02-11T12:39:00.643Z,52.63
2018-02-11T12:40:03.160Z,52.70
2018-02-11T12:41:05.691Z,52.87
2018-02-11T12:42:08.172Z,52.91
2018-02-11T12:43:10.683Z,52.99
2018-02-11T12:44:13.151Z,52.91
2018-02-11T12:45:15.657Z,52.86
2018-02-11T12:46:18.125Z,53.05
2018-02-11T12:47:20.578Z,53.46
2018-02-11T12:48:23.117Z,53.48
2018-02-11T12:49:25.640Z,53.42
2018-02-11T12:50:28.135Z,53.33
2018-02-11T12:51:30.622Z,53.50
2018-02-11T12:52:33.152Z,53.51
2018-02-11T12:53:36.150Z,53.49
2018-02-11T12:54:39.391Z,53.55
2018-02-11T12:55:41.877Z,53.63
2018-02-11T12:56:44.412Z,53.64
2018-02-11T12:57:46.886Z,53.59
2018-02-11T12:58:49.392Z,53.58
2018-02-11T12:59:51.881Z,53.63
2018-02-11T13:00:54.377Z,53.63
2018-02-11T13:01:56.841Z,53.87
2018-02-11T13:02:59.365Z,53.97
2018-02-11T13:04:02.239Z,54.08
2018-02-11T13:05:04.706Z,54.03
2018-02-11T13:06:07.200Z,54.06
2018-02-11T13:07:09.689Z,54.16
2018-02-11T13:08:12.249Z,54.18
2018-02-11T13:09:14.810Z,54.03
2018-02-11T13:10:17.272Z,54.00
2018-02-11T13:11:19.736Z,54.07
2018-02-11T13:12:22.279Z,54.12
2018-02-11T13:13:24.714Z,54.28
2018-02-11T13:14:27.202Z,54.38
2018-02-11T13:15:29.671Z,54.37
2018-02-11T13:16:32.152Z,54.29
2018-02-11T13:17:34.622Z,54.33
2018-02-11T13:18:37.109Z,54.48
2018-02-11T13:19:39.681Z,54.35
2018-02-11T13:20:42.151Z,54.39
2018-02-11T13:21:44.664Z,54.51
2018-02-11T13:22:47.130Z,54.45
2018-02-11T13:23:49.607Z,54.39
2018-02-11T13:24:52.096Z,54.47